Etusivu
METAR-TAF:

METAR-TAF

Lentoasemat :

Clayton, New Mexico, Yhdysvallat

Leveyspiiri: 36-26-54N, Pituuspiiri: 103-09-11W, korkeus merenpinnasta: 1513 m

Tämänhetkinen sää

Tämä raportti tehtiin 7 minuuttia sitten, kello 08.55 UTC
Tuuli 6 kn lännestä/lounaasta
Lämpötila 21°C
Kosteus 53%
Ilmanpaine 1018 hPa
Näkyvyys: 16.1 km
selkeää

METAR: KCAO 200855Z AUTO 24006KT 10SM CLR 21/11 A3007 RMK AO2 SLP112 T02110111 58007

Aika: 03:02 (09:02 UTC)


TAF: puuttuu

Säähavainnot ja -ennusteet yli 4000 lentoasemalta (METAR- ja TAF-raportit).

Käytössä olevat sääasemat on merkitty karttaan keltaisilla ja punaisilla pisteillä.

Aseta hiiri pisteen päälle nähdäksesi sääaseman nimen.

Klikkaa sitten nähdäksesi säähavainnot ja -ennusteet.

Kartan vaihtaminen: klikkaa mustalla rastilla varustettuja vihreitä pisteitä, niin voit zoomata sisään; viivalla varustettua vihreää pistettä, niin voit zoomata ulos tai vihreitä nuolia, niin pääset viereisille kartoille.


METAR-TAF: